Time;durP1;ratioP1;P1;durP2;ratioP2;P2;SDS_P1;SDS_P2;PMS_P1;PMS_P2;Temp;Humidity;BMP_temperature;BMP_pressure;BME280_temperature;BME280_humidity;BME280_pressure;Samples;Min_cycle;Max_cycle;Signal;HPM_P1;HPM_P2
2023/12/11 00:00:46;;;;;;;14.50;14.00;;;;;;;-141.02;100.00;41029.94;5114689;28;20197;-80
2023/12/11 00:03:19;;;;;;;15.03;14.53;;;;;;;-141.02;100.00;41170.00;5114915;27;20281;-80
2023/12/11 00:05:46;;;;;;;15.20;14.70;;;;;;;-141.02;100.00;41206.47;5114637;28;20236;-80
2023/12/11 00:08:21;;;;;;;14.53;14.07;;;;;;;-141.02;100.00;41461.69;5114794;28;20189;-80
2023/12/11 00:10:49;;;;;;;14.20;13.70;;;;;;;-141.02;100.00;41613.28;5114498;28;20243;-79
2023/12/11 00:13:16;;;;;;;14.30;13.80;;;;;;;-141.02;100.00;41855.09;5114733;27;20619;-80
2023/12/11 00:15:43;;;;;;;14.33;13.83;;;;;;;-141.02;100.00;41983.69;5114137;28;20675;-78
2023/12/11 00:18:10;;;;;;;14.23;13.73;;;;;;;-141.02;100.00;42185.22;5114716;28;20197;-78
2023/12/11 00:20:37;;;;;;;14.63;14.13;;;;;;;-141.02;100.00;42390.59;5114319;28;20198;-78
2023/12/11 00:23:04;;;;;;;15.40;14.90;;;;;;;-141.02;100.00;42763.00;5114508;28;20612;-78
2023/12/11 00:25:32;;;;;;;14.23;13.73;;;;;;;-141.02;100.00;43239.09;5114162;28;20714;-77
2023/12/11 00:27:59;;;;;;;14.17;13.67;;;;;;;-141.02;100.00;43592.41;5114201;28;20193;-77
2023/12/11 00:30:27;;;;;;;13.73;13.23;;;;;;;-141.02;100.00;43500.25;5114478;28;20644;-77
2023/12/11 00:32:54;;;;;;;14.33;13.83;;;;;;;-141.02;100.00;43565.53;5114058;28;20193;-77
2023/12/11 00:35:21;;;;;;;14.30;13.80;;;;;;;-141.02;100.00;43669.22;5114322;28;20189;-76
2023/12/11 00:37:48;;;;;;;13.20;12.80;;;;;;;-141.02;100.00;43991.81;5114216;28;20254;-76
2023/12/11 00:40:16;;;;;;;13.20;12.80;;;;;;;-141.02;100.00;44402.81;5114195;28;20221;-76
2023/12/11 00:42:48;;;;;;;13.70;13.30;;;;;;;-141.02;100.00;44725.50;5114051;28;20278;-76
2023/12/11 00:45:17;;;;;;;13.57;13.17;;;;;;;-141.02;100.00;44902.22;5114152;28;20193;-76
2023/12/11 00:47:44;;;;;;;12.37;11.97;;;;;;;-141.02;100.00;45209.59;5114065;28;20221;-76
2023/12/11 00:50:17;;;;;;;12.50;12.10;;;;;;;-141.02;100.00;45419.00;5113992;28;20193;-76
2023/12/11 00:52:50;;;;;;;12.10;11.70;;;;;;;-141.02;100.00;45536.19;5113671;28;20243;-77
2023/12/11 00:55:17;;;;;;;12.00;11.60;;;;;;;-141.02;100.00;45695.66;5113474;28;20260;-76
2023/12/11 00:57:44;;;;;;;11.90;11.50;;;;;;;-141.02;100.00;45870.50;5113838;28;20189;-76
2023/12/11 01:00:20;;;;;;;11.30;11.00;;;;;;;-141.02;100.00;46145.28;5113808;28;20221;-77
2023/12/11 01:02:47;;;;;;;11.20;10.90;;;;;;;-141.02;100.00;46523.88;5113390;28;20706;-76
2023/12/11 01:05:20;;;;;;;11.00;10.70;;;;;;;-141.02;100.00;46689.16;5113312;28;20673;-76
2023/12/11 01:07:49;;;;;;;10.47;10.17;;;;;;;-141.02;100.00;46731.44;5113361;28;20258;-76
2023/12/11 01:10:17;;;;;;;10.30;10.00;;;;;;;-141.02;100.00;46873.66;5113614;28;20201;-76
2023/12/11 01:12:45;;;;;;;9.70;9.40;;;;;;;-141.02;100.00;46973.63;5113373;28;20719;-77
2023/12/11 01:15:22;;;;;;;9.83;9.53;;;;;;;-141.02;100.00;47077.41;5113592;28;20731;-76
2023/12/11 01:17:49;;;;;;;9.47;9.17;;;;;;;-141.02;100.00;46581.53;5113554;28;20193;-77
2023/12/11 01:20:16;;;;;;;9.57;9.27;;;;;;;-141.02;100.00;46637.25;5113176;28;20228;-77
2023/12/11 01:22:43;;;;;;;8.80;8.60;;;;;;;-141.02;100.00;46629.56;5113370;28;20223;-77
2023/12/11 01:25:17;;;;;;;10.03;9.73;;;;;;;-141.02;100.00;46600.75;5113719;28;20200;-77
2023/12/11 01:27:44;;;;;;;9.90;9.60;;;;;;;-141.02;100.00;46293.25;5112974;28;20675;-78
2023/12/11 01:30:14;;;;;;;8.40;8.20;;;;;;;-141.02;100.00;46093.41;5113297;28;20228;-77
2023/12/11 01:32:42;;;;;;;8.57;8.37;;;;;;;-141.02;100.00;46039.59;5113259;28;20254;-78
2023/12/11 01:35:09;;;;;;;8.30;8.10;;;;;;;-141.02;100.00;45835.91;5113300;28;20226;-78
2023/12/11 01:37:36;;;;;;;8.50;8.30;;;;;;;-141.02;100.00;45866.66;5113165;28;20262;-78
2023/12/11 01:40:05;;;;;;;8.07;7.87;;;;;;;-141.02;100.00;45666.84;5112782;28;20560;-78
2023/12/11 01:42:33;;;;;;;8.20;8.00;;;;;;;-141.02;100.00;45397.84;5113099;28;20197;-78
2023/12/11 01:45:00;;;;;;;7.90;7.70;;;;;;;-141.02;100.00;44980.97;5112746;28;20256;-78
2023/12/11 01:47:27;;;;;;;7.90;7.70;;;;;;;-141.02;100.00;45002.09;5113113;28;20281;-79
2023/12/11 01:49:56;;;;;;;12.33;11.93;;;;;;;-141.02;100.00;44625.63;5112655;28;20235;-79
2023/12/11 01:52:24;;;;;;;8.17;7.97;;;;;;;-141.02;100.00;44518.06;5113208;28;20189;-79
2023/12/11 01:54:51;;;;;;;11.50;11.10;;;;;;;-141.02;100.00;44326.00;5112504;28;20233;-79
2023/12/11 01:57:18;;;;;;;11.53;11.23;;;;;;;-141.02;100.00;44233.81;5112633;28;20224;-79
2023/12/11 01:59:48;;;;;;;11.33;11.03;;;;;;;-141.02;100.00;44095.53;5112783;28;20193;-80
2023/12/11 02:02:19;;;;;;;7.50;7.30;;;;;;;-141.02;100.00;43911.16;5112523;28;20655;-80
2023/12/11 02:04:53;;;;;;;8.13;7.93;;;;;;;-141.02;100.00;43797.88;5112490;28;20216;-80
2023/12/11 02:07:23;;;;;;;8.30;8.10;;;;;;;-141.02;100.00;43807.47;5112799;28;20242;-79
2023/12/11 02:09:50;;;;;;;9.20;8.90;;;;;;;-141.02;100.00;43782.50;5111928;28;20261;-81
2023/12/11 02:12:23;;;;;;;9.37;9.07;;;;;;;-141.02;100.00;43761.38;5112411;28;20284;-80
2023/12/11 02:14:53;;;;;;;9.87;9.57;;;;;;;-141.02;100.00;43757.53;5113024;28;20208;-81
2023/12/11 02:17:23;;;;;;;9.23;8.93;;;;;;;-141.02;100.00;43730.66;5112314;28;20197;-80
2023/12/11 02:19:50;;;;;;;8.60;8.40;;;;;;;-141.02;100.00;43792.09;5112622;28;20250;-83
2023/12/11 02:22:18;;;;;;;8.83;8.63;;;;;;;-141.02;100.00;43788.28;5112326;28;20219;-83
2023/12/11 02:24:50;;;;;;;8.97;8.77;;;;;;;-141.02;100.00;43772.91;5112480;28;20237;-82
2023/12/11 02:27:25;;;;;;;10.20;9.80;;;;;;;-141.02;100.00;43807.47;5112321;28;20224;-83
2023/12/11 02:29:54;;;;;;;8.73;8.53;;;;;;;-141.02;100.00;43857.41;5112824;28;20273;-83
2023/12/11 02:32:23;;;;;;;8.70;8.50;;;;;;;-141.02;100.00;43932.28;5112198;28;20685;-84
2023/12/11 02:34:53;;;;;;;8.53;8.33;;;;;;;-141.02;100.00;44034.06;5112158;28;20670;-84
2023/12/11 02:37:23;;;;;;;10.20;9.90;;;;;;;-141.02;100.00;44045.59;5112461;28;20189;-83
2023/12/11 02:39:50;;;;;;;10.37;10.07;;;;;;;-141.02;100.00;44064.81;5112416;28;20232;-85
2023/12/11 02:42:17;;;;;;;8.67;8.47;;;;;;;-141.02;100.00;44064.81;5112517;28;20250;-83
2023/12/11 02:44:46;;;;;;;9.03;8.83;;;;;;;-141.02;100.00;44116.66;5112177;28;20278;-87
2023/12/11 02:47:13;;;;;;;8.47;8.27;;;;;;;-141.02;100.00;44049.44;5112518;28;20197;-86
2023/12/11 02:49:40;;;;;;;8.17;7.97;;;;;;;-141.02;100.00;44122.41;5112463;28;20197;-86
2023/12/11 02:52:07;;;;;;;8.40;8.20;;;;;;;-141.02;100.00;44153.16;5112201;28;20232;-88
2023/12/11 02:54:34;;;;;;;9.10;8.80;;;;;;;-141.02;100.00;44149.31;5112333;28;20225;-86
2023/12/11 02:57:01;;;;;;;10.90;10.60;;;;;;;-141.02;100.00;44141.63;5112388;28;20197;-86
2023/12/11 02:59:28;;;;;;;9.40;9.10;;;;;;;-141.02;100.00;44151.22;5112105;28;20280;-84
2023/12/11 03:01:57;;;;;;;8.67;8.47;;;;;;;-141.02;100.00;44256.84;5112056;28;20713;-87
2023/12/11 03:04:26;;;;;;;8.70;8.50;;;;;;;-141.02;100.00;44356.72;5112360;28;20572;-85
2023/12/11 03:07:00;;;;;;;10.00;9.70;;;;;;;-141.02;100.00;44422.03;5113290;28;20640;-86
2023/12/11 03:09:28;;;;;;;9.50;9.20;;;;;;;-141.02;100.00;44471.97;5112582;28;20224;-74
2023/12/11 03:11:57;;;;;;;10.60;10.30;;;;;;;-141.02;100.00;44393.22;5112609;28;20685;-86
2023/12/11 03:14:26;;;;;;;10.33;10.03;;;;;;;-141.02;100.00;44441.22;5112018;28;20254;-85
2023/12/11 03:16:53;;;;;;;10.33;10.03;;;;;;;-141.02;100.00;44763.91;5111981;28;20606;-88
2023/12/11 03:19:28;;;;;;;10.87;10.57;;;;;;;-141.02;100.00;44848.44;5112365;28;20197;-86
2023/12/11 03:21:55;;;;;;;10.90;10.60;;;;;;;-141.02;100.00;44692.84;5114439;28;20786;-86
2023/12/11 03:24:22;;;;;;;12.33;11.93;;;;;;;-141.02;100.00;44579.53;5115689;28;20281;-86
2023/12/11 03:26:49;;;;;;;11.40;11.10;;;;;;;-141.02;100.00;44521.91;5115341;28;20193;-85
2023/12/11 03:29:16;;;;;;;11.30;11.00;;;;;;;-141.02;100.00;44800.41;5115687;28;20279;-81
2023/12/11 03:31:43;;;;;;;11.57;11.27;;;;;;;-141.02;100.00;45353.66;5115542;28;20193;-82
2023/12/11 03:34:10;;;;;;;10.60;10.30;;;;;;;-141.02;100.00;45930.06;5115556;28;20232;-84
2023/12/11 03:36:38;;;;;;;10.40;10.10;;;;;;;-141.02;100.00;46669.94;5115520;28;20193;-84
2023/12/11 03:42:27;;;;;;;10.17;9.87;;;;;;;-141.02;100.00;48309.75;5115224;28;20207;-87
2023/12/11 03:44:54;;;;;;;9.20;8.90;;;;;;;-141.02;100.00;48923.19;5115224;28;20733;-86
2023/12/11 03:47:23;;;;;;;9.40;9.10;;;;;;;-141.02;100.00;48992.44;5115297;28;20196;-85
2023/12/11 03:49:51;;;;;;;8.80;8.60;;;;;;;-141.02;100.00;49606.00;5115457;28;20197;-84
2023/12/11 03:52:22;;;;;;;9.60;9.30;;;;;;;-141.02;100.00;49877.25;5115334;28;20197;-82
2023/12/11 03:54:49;;;;;;;9.13;8.90;;;;;;;-141.02;100.00;50198.53;5112466;28;20256;-87
2023/12/11 03:57:16;;;;;;;9.40;9.10;;;;;;;-141.02;100.00;50469.81;5114907;28;20200;-87
2023/12/11 03:59:43;;;;;;;8.80;8.60;;;;;;;-141.02;100.00;50412.09;5115006;28;20193;-86
2023/12/11 04:02:13;;;;;;;8.83;8.63;;;;;;;-141.02;100.00;50231.25;5114946;28;20623;-83
2023/12/11 04:04:41;;;;;;;9.50;9.20;;;;;;;-141.02;100.00;49969.59;5114556;28;20319;-85
2023/12/11 04:07:08;;;;;;;8.87;8.67;;;;;;;-141.02;100.00;50136.97;5114905;28;20297;-87
2023/12/11 04:09:42;;;;;;;9.67;9.37;;;;;;;-141.02;100.00;49788.75;5115254;27;20193;-86
2023/12/11 04:12:10;;;;;;;8.90;8.70;;;;;;;-141.02;100.00;49661.78;5114489;28;20200;-85
2023/12/11 04:14:40;;;;;;;7.60;7.40;;;;;;;-141.02;100.00;49400.19;5114534;28;20189;-86
2023/12/11 04:17:13;;;;;;;8.13;7.93;;;;;;;-141.02;100.00;49311.72;5114578;28;20235;-87
2023/12/11 04:19:40;;;;;;;7.93;7.73;;;;;;;-141.02;100.00;49342.47;5114817;28;20232;-87
2023/12/11 04:22:13;;;;;;;8.57;8.37;;;;;;;-141.02;100.00;49319.41;5114791;28;20255;-88
2023/12/11 04:24:42;;;;;;;9.53;9.23;;;;;;;-141.02;100.00;49550.22;5114679;28;20252;-88
2023/12/11 04:27:11;;;;;;;9.20;8.90;;;;;;;-141.02;100.00;49579.06;5114400;28;20228;-85
2023/12/11 04:29:39;;;;;;;8.47;8.27;;;;;;;-141.02;100.00;49550.22;5114620;28;20219;-82
2023/12/11 04:32:06;;;;;;;8.50;8.30;;;;;;;-141.02;100.00;49881.09;5114215;28;20194;-86
2023/12/11 04:34:33;;;;;;;9.10;8.87;;;;;;;-141.02;100.00;50046.53;5114082;28;20201;-86
2023/12/11 04:37:00;;;;;;;8.53;8.33;;;;;;;-141.02;100.00;49984.97;5113983;28;20197;-85
2023/12/11 04:39:27;;;;;;;8.27;8.07;;;;;;;-141.02;100.00;50092.72;5114053;28;20224;-84
2023/12/11 04:41:56;;;;;;;8.00;7.80;;;;;;;-141.02;100.00;50173.53;5114478;28;20189;-85
2023/12/11 04:44:23;;;;;;;7.80;7.60;;;;;;;-141.02;100.00;50196.59;5114250;28;20260;-86
2023/12/11 04:46:50;;;;;;;7.73;7.53;;;;;;;-141.02;100.00;50161.97;5114114;28;20317;-83
2023/12/11 04:49:17;;;;;;;7.70;7.50;;;;;;;-141.02;100.00;50146.59;5114078;28;20226;-86
2023/12/11 04:51:44;;;;;;;7.50;7.30;;;;;;;-141.02;100.00;50096.56;5114326;28;20239;-86
2023/12/11 04:54:11;;;;;;;8.07;7.87;;;;;;;-141.02;100.00;49802.22;5113641;28;20233;-83
2023/12/11 04:56:38;;;;;;;8.40;8.20;;;;;;;-141.02;100.00;49554.06;5113883;28;20218;-85
2023/12/11 04:59:06;;;;;;;8.17;7.97;;;;;;;-141.02;100.00;49321.31;5113845;28;20197;-85
2023/12/11 05:01:33;;;;;;;8.27;8.07;;;;;;;-141.02;100.00;49130.91;5113802;28;20229;-85
2023/12/11 05:04:00;;;;;;;8.10;7.90;;;;;;;-141.02;100.00;49177.06;5113721;28;20201;-82
2023/12/11 05:06:27;;;;;;;8.20;8.00;;;;;;;-141.02;100.00;49050.13;5113781;28;20664;-85
2023/12/11 05:08:54;;;;;;;7.77;7.57;;;;;;;-141.02;100.00;49246.31;5113774;28;20271;-85
2023/12/11 05:11:22;;;;;;;7.67;7.47;;;;;;;-141.02;100.00;49088.59;5113924;28;20192;-86
2023/12/11 05:13:49;;;;;;;7.77;7.57;;;;;;;-141.02;100.00;49581.00;5113329;28;20189;-84
2023/12/11 05:16:17;;;;;;;8.30;8.10;;;;;;;-141.02;100.00;49650.25;5113474;28;20197;-85
2023/12/11 05:18:44;;;;;;;8.03;7.83;;;;;;;-141.02;100.00;49773.38;5113504;28;20197;-83
2023/12/11 05:21:11;;;;;;;7.10;6.90;;;;;;;-141.02;100.00;50217.78;5113465;28;20197;-81
2023/12/11 05:23:39;;;;;;;6.87;6.67;;;;;;;-141.02;100.00;49984.97;5113273;28;20219;-85
2023/12/11 05:26:06;;;;;;;6.77;6.57;;;;;;;-141.02;100.00;49602.16;5113349;28;20260;-84
2023/12/11 05:28:33;;;;;;;9.40;9.10;;;;;;;-141.02;100.00;49311.72;5113393;28;20193;-85
2023/12/11 05:31:00;;;;;;;10.20;9.90;;;;;;;-141.02;100.00;48780.88;5113143;28;20193;-86
2023/12/11 05:33:29;;;;;;;10.40;10.10;;;;;;;-141.02;100.00;48588.56;5113363;28;20197;-84
2023/12/11 05:35:56;;;;;;;7.97;7.77;;;;;;;-141.02;100.00;48688.56;5113049;28;20232;-86
2023/12/11 05:38:23;;;;;;;8.43;8.23;;;;;;;-141.02;100.00;48896.28;5112862;28;20224;-85
2023/12/11 05:40:50;;;;;;;7.97;7.77;;;;;;;-141.02;100.00;48700.13;5113135;28;20232;-84
2023/12/11 05:43:17;;;;;;;7.93;7.73;;;;;;;-141.02;100.00;48538.56;5112776;28;20269;-84
2023/12/11 05:45:44;;;;;;;7.70;7.50;;;;;;;-141.02;100.00;48169.38;5112824;28;20311;-87
2023/12/11 05:48:11;;;;;;;7.57;7.37;;;;;;;-141.02;100.00;47796.38;5112786;28;20232;-85
2023/12/11 05:50:40;;;;;;;7.80;7.60;;;;;;;-141.02;100.00;47438.81;5112965;28;20188;-84
2023/12/11 05:53:06;;;;;;;9.53;9.23;;;;;;;-141.02;100.00;47069.72;5112705;28;20189;-86
2023/12/11 05:55:32;;;;;;;9.20;8.90;;;;;;;-141.02;100.00;46904.41;5112524;28;20236;-85
2023/12/11 05:57:59;;;;;;;9.23;8.93;;;;;;;-141.02;100.00;46977.47;5112567;28;20198;-81
2023/12/11 06:00:27;;;;;;;8.33;8.13;;;;;;;-141.02;100.00;47121.63;5113012;28;20542;-85
2023/12/11 06:02:54;;;;;;;8.80;8.60;;;;;;;-141.02;100.00;47408.03;5112489;28;20627;-86
2023/12/11 06:05:21;;;;;;;9.30;9.00;;;;;;;-141.02;100.00;47631.03;5112744;28;20235;-84
2023/12/11 06:07:50;;;;;;;9.80;9.50;;;;;;;-141.02;100.00;47911.75;5112827;28;20193;-86
2023/12/11 06:10:17;;;;;;;9.80;9.50;;;;;;;-141.02;100.00;48392.44;5112818;28;20232;-87
2023/12/11 06:12:44;;;;;;;9.90;9.60;;;;;;;-141.02;100.00;49161.69;5112782;28;20232;-86
2023/12/11 06:15:12;;;;;;;10.13;9.83;;;;;;;-141.02;100.00;49355.94;5112588;28;20228;-84
2023/12/11 06:17:39;;;;;;;10.00;9.70;;;;;;;-141.02;100.00;49146.28;5113234;28;20231;-87
2023/12/11 06:20:07;;;;;;;10.30;10.00;;;;;;;-141.02;100.00;49323.25;5113504;28;20189;-86
2023/12/11 06:22:34;;;;;;;10.30;10.00;;;;;;;-141.02;100.00;50010.00;5112347;28;20197;-87
2023/12/11 06:25:03;;;;;;;10.70;10.40;;;;;;;-141.02;100.00;50046.53;5112718;28;20238;-86
2023/12/11 06:27:29;;;;;;;10.63;10.33;;;;;;;-141.02;100.00;50146.59;5112510;28;20197;-85
2023/12/11 06:29:57;;;;;;;10.60;10.30;;;;;;;-141.02;100.00;50431.34;5112538;28;20235;-87
2023/12/11 06:32:24;;;;;;;10.60;10.30;;;;;;;-141.02;100.00;49542.53;5112533;28;20215;-85
2023/12/11 06:34:51;;;;;;;10.90;10.60;;;;;;;-141.02;100.00;49763.75;5112460;28;20193;-87
2023/12/11 06:37:18;;;;;;;10.37;10.07;;;;;;;-141.02;100.00;49704.13;5112495;28;20197;-83
2023/12/11 06:39:45;;;;;;;10.67;10.37;;;;;;;-141.02;100.00;49811.84;5112357;28;20197;-86
2023/12/11 06:42:13;;;;;;;12.23;11.83;;;;;;;-141.02;100.00;50273.56;5112171;28;20246;-85
2023/12/11 06:44:40;;;;;;;12.20;11.80;;;;;;;-141.02;100.00;51143.31;5112548;28;20217;-83
2023/12/11 06:47:07;;;;;;;10.77;10.47;;;;;;;-141.02;100.00;51262.63;5112353;28;20654;-84
2023/12/11 06:49:34;;;;;;;11.33;11.03;;;;;;;-141.02;100.00;51047.09;5112167;28;20655;-87
2023/12/11 06:52:01;;;;;;;11.50;11.20;;;;;;;-141.02;100.00;50616.06;5112643;28;20246;-83
2023/12/11 06:54:28;;;;;;;10.90;10.60;;;;;;;-141.02;100.00;50448.66;5112103;28;20267;-86
2023/12/11 06:56:56;;;;;;;10.60;10.30;;;;;;;-141.02;100.00;50427.50;5116273;28;20250;-84
2023/12/11 06:59:24;;;;;;;11.03;10.73;;;;;;;-141.02;100.00;50673.78;5115925;28;20197;-83
2023/12/11 07:01:51;;;;;;;12.77;12.37;;;;;;;-141.02;100.00;50450.56;5116254;28;20193;-86
2023/12/11 07:04:18;;;;;;;11.50;11.20;;;;;;;-141.02;100.00;49908.03;5115990;28;20542;-85
2023/12/11 07:06:45;;;;;;;12.67;12.27;;;;;;;-141.02;100.00;49080.91;5116038;27;20286;-85
2023/12/11 07:09:12;;;;;;;12.70;12.30;;;;;;;-141.02;100.00;48500.13;5115681;28;20679;-80
2023/12/11 07:11:39;;;;;;;13.20;12.80;;;;;;;-141.02;100.00;47765.63;5115782;28;20193;-85
2023/12/11 07:14:07;;;;;;;15.67;15.13;;;;;;;-141.02;100.00;47469.56;5115749;28;20193;-84
2023/12/11 07:16:36;;;;;;;16.40;15.80;;;;;;;-141.02;100.00;46900.56;5115912;28;20192;-86
2023/12/11 07:19:04;;;;;;;13.23;12.83;;;;;;;-141.02;100.00;46646.88;5115532;28;20254;-83
2023/12/11 07:21:31;;;;;;;13.57;13.17;;;;;;;-141.02;100.00;46439.31;5115780;28;20197;-84
2023/12/11 07:23:58;;;;;;;13.50;13.10;;;;;;;-141.02;100.00;46819.84;5115767;28;20201;-83
2023/12/11 07:26:25;;;;;;;13.93;13.43;;;;;;;-141.02;100.00;46858.28;5115308;28;20650;-85
2023/12/11 07:28:53;;;;;;;13.80;13.30;;;;;;;-141.02;100.00;46789.09;5115319;28;20190;-83
2023/12/11 07:31:20;;;;;;;14.80;14.20;;;;;;;-141.02;100.00;46685.31;5115620;28;20232;-85
2023/12/11 07:33:49;;;;;;;14.60;14.10;;;;;;;-141.02;100.00;46673.78;5115799;28;20242;-86
2023/12/11 07:36:17;;;;;;;14.93;14.33;;;;;;;-141.02;100.00;46250.97;5115533;28;20193;-84
2023/12/11 07:38:44;;;;;;;17.60;16.80;;;;;;;-141.02;100.00;45430.50;5115445;28;20201;-84
2023/12/11 07:41:11;;;;;;;17.73;16.97;;;;;;;-141.02;100.00;45113.53;5115487;28;20189;-86
2023/12/11 07:43:38;;;;;;;15.90;15.10;;;;;;;-141.02;100.00;44516.13;5115392;28;20216;-82
2023/12/11 07:46:05;;;;;;;16.43;15.63;;;;;;;-141.02;100.00;44314.47;5115476;28;20264;-84
2023/12/11 07:48:32;;;;;;;15.90;15.20;;;;;;;-141.02;100.00;44060.97;5115256;28;20227;-83
2023/12/11 07:51:01;;;;;;;15.20;14.60;;;;;;;-141.02;100.00;44525.75;5115232;28;20693;-83
2023/12/11 07:53:28;;;;;;;15.90;15.30;;;;;;;-141.02;100.00;45032.84;5114957;27;20246;-83
2023/12/11 07:55:55;;;;;;;14.97;14.43;;;;;;;-141.02;100.00;45278.75;5114893;28;20222;-82
2023/12/11 07:58:22;;;;;;;14.00;13.50;;;;;;;-141.02;100.00;45374.81;5115404;28;20238;-84
2023/12/11 08:00:49;;;;;;;13.90;13.40;;;;;;;-141.02;100.00;45126.97;5115034;28;20197;-83
2023/12/11 08:03:16;;;;;;;14.00;13.40;;;;;;;-141.02;100.00;45109.69;5114738;28;20229;-80
2023/12/11 08:05:43;;;;;;;14.23;13.63;;;;;;;-141.02;100.00;45294.13;5114600;28;20229;-82
2023/12/11 08:08:13;;;;;;;14.80;14.10;;;;;;;-141.02;100.00;44387.44;5114073;28;20193;-83
2023/12/11 08:10:40;;;;;;;19.33;18.43;;;;;;;-141.02;100.00;44253.00;5114896;28;20201;-83
2023/12/11 08:13:07;;;;;;;22.13;21.03;;;;;;;-141.02;100.00;44272.22;5114789;28;20671;-83
2023/12/11 08:15:37;;;;;;;14.87;14.27;;;;;;;-141.02;100.00;44608.34;5114727;28;20585;-82
2023/12/11 08:18:05;;;;;;;14.50;13.90;;;;;;;-141.02;100.00;45288.34;5114728;28;20189;-80
2023/12/11 08:20:32;;;;;;;13.90;13.40;;;;;;;-141.02;100.00;45048.22;5114260;28;20663;-83
2023/12/11 08:22:59;;;;;;;14.03;13.53;;;;;;;-141.02;100.00;45307.56;5114598;28;20193;-83
2023/12/11 08:25:27;;;;;;;13.87;13.37;;;;;;;-141.02;100.00;45113.53;5114464;28;20281;-82
2023/12/11 08:27:54;;;;;;;13.93;13.43;;;;;;;-141.02;100.00;45349.81;5114563;28;20203;-81
2023/12/11 08:30:21;;;;;;;13.73;13.23;;;;;;;-141.02;100.00;45809.03;5114433;28;20227;-83
2023/12/11 08:32:48;;;;;;;19.23;18.37;;;;;;;-141.02;100.00;45336.38;5114464;28;20694;-83
2023/12/11 08:35:16;;;;;;;14.93;14.33;;;;;;;-141.02;100.00;45213.44;5114111;28;20229;-82
2023/12/11 08:37:46;;;;;;;14.97;14.37;;;;;;;-141.02;100.00;45378.66;5114258;28;20277;-80
2023/12/11 08:40:15;;;;;;;15.37;14.67;;;;;;;-141.02;100.00;45194.22;5114278;28;20229;-78
2023/12/11 08:42:43;;;;;;;15.77;15.07;;;;;;;-141.02;100.00;45151.94;5114177;28;20197;-81
2023/12/11 08:45:11;;;;;;;15.50;14.80;;;;;;;-141.02;100.00;45324.84;5113787;28;20228;-81
2023/12/11 08:47:41;;;;;;;15.40;14.70;;;;;;;-141.02;100.00;45171.16;5113807;28;20189;-81
2023/12/11 08:50:09;;;;;;;21.83;20.77;;;;;;;-141.02;100.00;45111.59;5114220;28;20188;-82
2023/12/11 08:52:37;;;;;;;17.03;16.23;;;;;;;-141.02;100.00;44665.94;5114055;28;20254;-81
2023/12/11 08:55:04;;;;;;;17.83;16.93;;;;;;;-141.02;100.00;44183.88;5113550;28;20244;-79
2023/12/11 08:57:33;;;;;;;18.47;17.57;;;;;;;-141.02;100.00;44339.44;5113568;28;20284;-78
2023/12/11 09:00:01;;;;;;;17.60;16.80;;;;;;;-141.02;100.00;44737.03;5113487;28;20689;-80
2023/12/11 09:02:28;;;;;;;18.77;17.87;;;;;;;-141.02;100.00;44130.09;5113789;28;20612;-80
2023/12/11 09:04:56;;;;;;;17.43;16.50;;;;;;;-141.02;100.00;44141.63;5113492;28;20233;-78
2023/12/11 09:07:23;;;;;;;20.63;19.53;;;;;;;-141.02;100.00;44579.53;5113356;28;20224;-80
2023/12/11 09:09:51;;;;;;;17.70;16.80;;;;;;;-141.02;100.00;44189.63;5113771;28;20196;-80
2023/12/11 09:12:18;;;;;;;17.67;16.77;;;;;;;-141.02;100.00;44260.69;5113581;28;20356;-80
2023/12/11 09:14:45;;;;;;;16.47;15.57;;;;;;;-141.02;100.00;44927.19;5113678;28;20623;-82
2023/12/11 09:17:13;;;;;;;18.27;17.27;;;;;;;-141.02;100.00;44502.69;5113185;28;20193;-82
2023/12/11 09:19:40;;;;;;;19.20;18.20;;;;;;;-141.02;100.00;43930.38;5113561;28;20193;-78
2023/12/11 09:22:07;;;;;;;18.63;17.63;;;;;;;-141.02;100.00;43638.50;5113078;28;20250;-80
2023/12/11 09:24:34;;;;;;;18.63;17.63;;;;;;;-141.02;100.00;43767.16;5113120;28;20702;-79
2023/12/11 09:27:02;;;;;;;18.40;17.40;;;;;;;-141.02;100.00;43400.38;5113285;28;20330;-80
2023/12/11 09:29:29;;;;;;;17.83;16.93;;;;;;;-141.02;100.00;43603.94;5113375;28;20193;-79
2023/12/11 09:31:56;;;;;;;18.40;17.50;;;;;;;-141.02;100.00;43722.97;5114441;28;20220;-81
2023/12/11 09:34:24;;;;;;;18.80;17.80;;;;;;;-141.02;100.00;43692.25;5113444;28;20278;-82
2023/12/11 09:36:52;;;;;;;19.10;17.90;;;;;;;-141.02;100.00;44372.09;5113219;28;20193;-72
2023/12/11 09:39:19;;;;;;;20.23;18.90;;;;;;;-141.02;100.00;44214.59;5112880;28;20228;-79
2023/12/11 09:41:45;;;;;;;20.30;18.90;;;;;;;-141.02;100.00;44114.72;5113056;28;20268;-80
2023/12/11 09:44:14;;;;;;;22.20;20.50;;;;;;;-141.02;100.00;43087.44;5113059;28;20228;-81
2023/12/11 09:46:48;;;;;;;23.17;21.27;;;;;;;-141.02;100.00;42974.16;5112592;28;20228;-78
2023/12/11 09:49:16;;;;;;;22.10;20.30;;;;;;;-141.02;100.00;43035.59;5112776;28;20185;-80
2023/12/11 09:51:45;;;;;;;22.03;20.33;;;;;;;-141.02;100.00;41776.41;5112990;28;20250;-78
2023/12/11 09:54:12;;;;;;;21.83;20.13;;;;;;;-141.02;100.00;42834.00;5112679;28;20285;-79
2023/12/11 09:56:40;;;;;;;22.33;20.43;;;;;;;-141.02;100.00;41941.44;5112668;28;20197;-79
2023/12/11 09:59:10;;;;;;;22.00;20.40;;;;;;;-141.02;100.00;41939.53;5112576;28;20200;-80
2023/12/11 10:01:37;;;;;;;21.47;19.87;;;;;;;-141.02;100.00;41826.31;5112877;28;20200;-80
2023/12/11 10:04:05;;;;;;;21.87;20.17;;;;;;;-141.02;100.00;41887.72;5112477;28;20287;-79
2023/12/11 10:06:32;;;;;;;21.80;20.20;;;;;;;-141.02;100.00;41578.75;5113418;28;20277;-79
2023/12/11 10:09:00;;;;;;;22.30;20.70;;;;;;;-141.02;100.00;42221.66;5112470;28;20232;-78
2023/12/11 10:11:28;;;;;;;21.23;19.63;;;;;;;-141.02;100.00;42411.69;5112764;28;20189;-78
2023/12/11 10:13:55;;;;;;;22.40;20.80;;;;;;;-141.02;100.00;42523.03;5112703;28;20201;-78
2023/12/11 10:16:29;;;;;;;22.20;20.40;;;;;;;-141.02;100.00;42559.50;5112714;28;20197;-79
2023/12/11 10:18:56;;;;;;;22.50;20.80;;;;;;;-141.02;100.00;42655.47;5112354;28;20591;-77
2023/12/11 10:21:25;;;;;;;23.30;21.30;;;;;;;-141.02;100.00;42417.47;5112231;28;20197;-79
2023/12/11 10:24:13;;;;;;;22.67;20.87;;;;;;;-141.02;100.00;42444.34;5112278;28;20204;-80
2023/12/11 10:26:46;;;;;;;23.20;21.30;;;;;;;-141.02;100.00;42571.03;5112262;28;20597;-80
2023/12/11 10:29:21;;;;;;;23.50;21.50;;;;;;;-141.02;99.28;42524.94;5112626;28;20242;-79
2023/12/11 10:31:48;;;;;;;25.60;23.30;;;;;;;-141.02;95.96;42279.25;5116435;28;20192;-79
2023/12/11 10:34:15;;;;;;;24.03;21.87;;;;;;;-141.02;100.00;42359.88;5116304;27;20223;-78
2023/12/11 10:36:50;;;;;;;23.33;21.33;;;;;;;-141.02;99.30;42440.50;5116470;28;20224;-79
2023/12/11 10:39:19;;;;;;;23.13;21.23;;;;;;;-141.02;98.41;42517.28;5116576;28;20188;-79
2023/12/11 10:41:47;;;;;;;24.03;21.93;;;;;;;-141.02;93.64;42352.19;5116549;28;20189;-78
2023/12/11 10:44:24;;;;;;;23.60;21.50;;;;;;;-141.02;97.37;42233.19;5116541;28;20193;-78
2023/12/11 10:46:54;;;;;;;24.30;22.10;;;;;;;-141.02;94.34;42169.84;5116336;28;20224;-81
2023/12/11 10:49:22;;;;;;;24.73;22.50;;;;;;;-141.02;97.36;42171.78;5116507;28;20197;-77
2023/12/11 10:51:49;;;;;;;24.47;22.27;;;;;;;-141.02;99.05;42202.47;5116382;28;20193;-78
2023/12/11 10:54:19;;;;;;;24.37;22.30;;;;;;;-141.02;96.92;42164.09;5115816;28;20316;-76
2023/12/11 10:56:48;;;;;;;23.70;21.60;;;;;;;-141.02;97.10;42252.38;5116621;28;20232;-78
2023/12/11 10:59:16;;;;;;;22.60;20.60;;;;;;;-141.02;95.42;42381.00;5116183;28;20287;-78
2023/12/11 11:01:46;;;;;;;24.93;22.63;;;;;;;-141.02;91.46;42221.66;5116164;28;20221;-77
2023/12/11 11:04:16;;;;;;;25.03;22.73;;;;;;;-141.02;91.11;42187.13;5116144;28;20185;-78
2023/12/11 11:06:50;;;;;;;23.27;21.17;;;;;;;-141.02;97.11;42415.53;5115673;28;20320;-79